createdAt,value
2022-10-12T00:00:53.475Z,6.88
2022-10-12T00:03:34.732Z,9.13
2022-10-12T00:06:14.998Z,11.25
2022-10-12T00:08:51.748Z,9.30
2022-10-12T00:11:27.439Z,7.28
2022-10-12T00:14:05.408Z,11.13
2022-10-12T00:16:49.372Z,7.43
2022-10-12T00:19:26.258Z,7.47
2022-10-12T00:22:01.607Z,7.22
2022-10-12T00:24:38.318Z,7.43
2022-10-12T00:27:16.445Z,7.63
2022-10-12T00:29:45.639Z,7.47
2022-10-12T00:32:19.163Z,12.18
2022-10-12T00:34:55.992Z,8.57
2022-10-12T00:37:35.931Z,6.85
2022-10-12T00:40:12.579Z,8.00
2022-10-12T00:42:46.482Z,6.72
2022-10-12T00:45:18.865Z,9.75
2022-10-12T00:48:05.912Z,6.50
2022-10-12T00:50:48.210Z,5.80
2022-10-12T00:53:24.692Z,7.60
2022-10-12T00:56:00.852Z,8.63
2022-10-12T00:58:42.638Z,6.22
2022-10-12T01:01:35.043Z,8.48
2022-10-12T01:04:08.160Z,7.38
2022-10-12T01:09:23.406Z,6.78
2022-10-12T01:11:57.878Z,5.38
2022-10-12T01:14:42.007Z,8.18
2022-10-12T01:17:25.486Z,9.70
2022-10-12T01:20:39.471Z,6.18
2022-10-12T01:23:43.038Z,6.03
2022-10-12T01:26:56.975Z,7.78
2022-10-12T01:30:18.020Z,5.63
2022-10-12T01:33:29.802Z,6.38
2022-10-12T01:36:14.977Z,7.18
2022-10-12T01:38:54.607Z,7.72
2022-10-12T01:41:31.696Z,6.40
2022-10-12T01:44:08.523Z,6.30
2022-10-12T01:46:51.210Z,4.43
2022-10-12T01:49:29.595Z,6.72
2022-10-12T01:52:25.196Z,5.22
2022-10-12T01:55:28.794Z,8.05
2022-10-12T01:58:19.729Z,5.50
2022-10-12T02:01:02.021Z,12.00
2022-10-12T02:03:41.367Z,6.07
2022-10-12T02:06:24.665Z,5.80
2022-10-12T02:11:35.932Z,8.40
2022-10-12T02:14:14.520Z,7.53
2022-10-12T02:16:53.935Z,7.25
2022-10-12T02:19:30.796Z,5.82
2022-10-12T02:22:12.087Z,7.25
2022-10-12T02:24:53.026Z,5.60
2022-10-12T02:27:29.895Z,5.18
2022-10-12T02:30:00.068Z,6.45
2022-10-12T02:32:51.270Z,6.28
2022-10-12T02:35:40.829Z,4.85
2022-10-12T02:38:24.635Z,6.55
2022-10-12T02:41:10.428Z,7.35
2022-10-12T02:43:52.188Z,5.70
2022-10-12T02:46:42.188Z,10.27
2022-10-12T02:49:19.651Z,5.95
2022-10-12T02:51:55.419Z,7.05
2022-10-12T02:54:37.746Z,7.65
2022-10-12T02:57:10.901Z,6.40
2022-10-12T03:02:21.756Z,12.15
2022-10-12T03:04:56.062Z,7.47
2022-10-12T03:07:36.969Z,7.75
2022-10-12T03:10:12.910Z,5.80
2022-10-12T03:12:51.907Z,6.47
2022-10-12T03:15:31.956Z,7.13
2022-10-12T03:18:07.380Z,5.68
2022-10-12T03:20:44.548Z,6.22
2022-10-12T03:23:36.799Z,11.65
2022-10-12T03:26:23.587Z,6.07
2022-10-12T03:28:58.475Z,7.68
2022-10-12T03:31:42.237Z,5.18
2022-10-12T03:34:21.035Z,6.32
2022-10-12T03:36:55.580Z,9.95
2022-10-12T03:39:34.054Z,5.13
2022-10-12T03:42:14.857Z,7.18
2022-10-12T03:44:53.063Z,7.13
2022-10-12T03:47:27.868Z,7.40
2022-10-12T03:49:59.442Z,8.75
2022-10-12T03:52:38.514Z,6.10
2022-10-12T03:55:15.106Z,6.38
2022-10-12T03:58:05.868Z,6.22
2022-10-12T04:00:40.157Z,7.13
2022-10-12T04:03:33.524Z,7.70
2022-10-12T04:06:07.651Z,9.98
2022-10-12T04:08:41.375Z,6.05
2022-10-12T04:11:25.509Z,11.13
2022-10-12T04:14:08.034Z,10.80
2022-10-12T04:16:43.690Z,12.10
2022-10-12T04:19:28.263Z,8.43
2022-10-12T04:22:02.881Z,9.25
2022-10-12T04:24:48.772Z,7.72
2022-10-12T04:27:29.685Z,10.98
2022-10-12T04:30:06.257Z,8.38
2022-10-12T04:32:39.308Z,10.73
2022-10-12T04:35:11.329Z,9.30
2022-10-12T04:37:41.294Z,7.93
2022-10-12T04:40:13.757Z,7.53
2022-10-12T04:42:48.139Z,8.05
2022-10-12T04:45:29.568Z,9.07
2022-10-12T04:48:04.334Z,6.93
2022-10-12T04:50:51.204Z,12.77
2022-10-12T04:53:42.117Z,10.25
2022-10-12T04:56:22.748Z,8.98
2022-10-12T04:59:10.003Z,7.10
2022-10-12T05:01:54.097Z,9.75
2022-10-12T05:04:29.887Z,7.28
2022-10-12T05:07:03.392Z,10.57
2022-10-12T05:09:40.239Z,13.27
2022-10-12T05:12:12.843Z,9.88
2022-10-12T05:14:45.947Z,10.50
2022-10-12T05:17:21.515Z,11.15
2022-10-12T05:19:56.939Z,12.57
2022-10-12T05:22:32.344Z,12.65
2022-10-12T05:25:15.771Z,8.38
2022-10-12T05:27:52.207Z,9.35
2022-10-12T05:30:35.812Z,9.52
2022-10-12T05:33:33.879Z,9.27
2022-10-12T05:36:09.727Z,9.88
2022-10-12T05:38:52.052Z,18.60
2022-10-12T05:41:35.841Z,9.30
2022-10-12T05:44:16.671Z,9.98
2022-10-12T05:46:46.844Z,14.63
2022-10-12T05:49:20.148Z,9.60
2022-10-12T05:51:52.982Z,9.60
2022-10-12T05:56:58.135Z,9.50
2022-10-12T05:59:29.748Z,10.27
2022-10-12T06:01:59.058Z,9.20
2022-10-12T06:04:31.485Z,9.10
2022-10-12T06:07:03.071Z,8.80
2022-10-12T06:09:35.916Z,8.20
2022-10-12T06:12:08.798Z,11.70
2022-10-12T06:14:37.669Z,11.00
2022-10-12T06:17:07.856Z,6.32
2022-10-12T06:19:38.065Z,4.35
2022-10-12T06:22:09.209Z,7.82
2022-10-12T06:24:38.404Z,9.23
2022-10-12T06:27:06.805Z,6.05
2022-10-12T06:29:36.254Z,6.43
2022-10-12T06:32:04.395Z,9.48
2022-10-12T06:34:35.428Z,10.05
2022-10-12T06:37:20.409Z,8.60
2022-10-12T06:42:30.603Z,22.98
2022-10-12T06:45:04.176Z,15.50
2022-10-12T06:47:33.402Z,7.10
2022-10-12T06:50:02.620Z,23.23
2022-10-12T06:52:36.167Z,19.60
2022-10-12T06:55:06.123Z,10.38
2022-10-12T06:57:34.977Z,8.25
2022-10-12T07:00:09.071Z,10.15
2022-10-12T07:02:40.025Z,9.88
2022-10-12T07:05:09.900Z,9.82
2022-10-12T07:07:39.986Z,8.07
2022-10-12T07:10:10.939Z,7.05
2022-10-12T07:12:40.122Z,6.45
2022-10-12T07:15:09.842Z,8.93
2022-10-12T07:17:38.614Z,9.55
2022-10-12T07:20:14.100Z,7.50
2022-10-12T07:22:44.744Z,6.18
2022-10-12T07:25:14.778Z,8.48
2022-10-12T07:27:45.005Z,8.52
2022-10-12T07:30:15.529Z,12.88
2022-10-12T07:32:45.339Z,12.18
2022-10-12T07:35:13.900Z,9.98
2022-10-12T07:37:44.201Z,8.70
2022-10-12T07:40:13.625Z,7.57
2022-10-12T07:43:15.241Z,9.02
2022-10-12T07:45:44.766Z,57.38
2022-10-12T07:48:15.966Z,7.72
2022-10-12T07:50:44.701Z,10.25
2022-10-12T07:53:25.777Z,8.57
2022-10-12T07:55:55.603Z,8.48
2022-10-12T07:58:29.695Z,12.05
2022-10-12T08:01:08.770Z,10.45
2022-10-12T08:03:37.439Z,12.85
2022-10-12T08:06:11.179Z,8.73
2022-10-12T08:08:44.396Z,6.90
2022-10-12T08:11:13.368Z,13.07
2022-10-12T08:13:42.672Z,9.32
2022-10-12T08:16:14.679Z,9.50
2022-10-12T08:18:47.449Z,9.15
2022-10-12T08:21:21.477Z,7.63
2022-10-12T08:23:59.607Z,11.50
2022-10-12T08:26:29.709Z,12.88
2022-10-12T08:29:02.052Z,8.45
2022-10-12T08:31:31.511Z,7.40
2022-10-12T08:34:00.534Z,9.48
2022-10-12T08:36:29.481Z,9.25
2022-10-12T08:38:59.688Z,10.10
2022-10-12T08:41:55.163Z,7.95
2022-10-12T08:44:53.111Z,9.30
2022-10-12T08:47:31.548Z,13.18
2022-10-12T08:50:04.744Z,13.85
2022-10-12T08:55:18.504Z,9.73
2022-10-12T08:57:49.883Z,9.23
2022-10-12T09:00:23.913Z,9.43
2022-10-12T09:03:17.390Z,8.43
2022-10-12T09:05:55.397Z,10.88
2022-10-12T09:08:55.625Z,9.05
2022-10-12T09:11:43.962Z,20.52
2022-10-12T09:14:17.815Z,14.77
2022-10-12T09:16:50.416Z,11.02
2022-10-12T09:19:25.313Z,8.48
2022-10-12T09:22:00.139Z,10.57
2022-10-12T09:24:32.951Z,8.98
2022-10-12T09:27:13.871Z,12.57
2022-10-12T09:29:42.937Z,9.90
2022-10-12T09:32:45.498Z,12.68
2022-10-12T09:35:16.274Z,14.27
2022-10-12T09:37:55.166Z,10.82
2022-10-12T09:40:26.982Z,13.45
2022-10-12T09:42:59.417Z,8.32
2022-10-12T09:45:27.932Z,11.35
2022-10-12T09:48:19.957Z,13.30
2022-10-12T09:50:53.058Z,14.73
2022-10-12T09:55:55.591Z,10.15
2022-10-12T09:58:56.342Z,10.15
2022-10-12T10:01:34.538Z,9.43
2022-10-12T10:04:12.376Z,10.25
2022-10-12T10:06:44.142Z,12.25
2022-10-12T10:09:33.703Z,9.82
2022-10-12T10:12:15.638Z,12.27
2022-10-12T10:14:47.754Z,12.82
2022-10-12T10:17:20.011Z,14.07
2022-10-12T10:19:54.855Z,15.17
2022-10-12T10:22:24.879Z,10.80
2022-10-12T10:24:59.075Z,11.23
2022-10-12T10:27:37.903Z,13.63
2022-10-12T10:30:32.605Z,13.52
2022-10-12T10:33:15.107Z,11.52
2022-10-12T10:36:02.727Z,11.52
2022-10-12T10:38:50.830Z,11.05
2022-10-12T10:41:22.677Z,11.07
2022-10-12T10:43:52.837Z,13.43
2022-10-12T10:46:27.168Z,11.57
2022-10-12T10:49:01.216Z,14.80
2022-10-12T10:51:44.942Z,11.95
2022-10-12T10:54:18.564Z,9.70
2022-10-12T10:56:48.457Z,11.15
2022-10-12T10:59:25.082Z,9.48
2022-10-12T11:01:57.959Z,9.25
2022-10-12T11:04:31.350Z,8.88
2022-10-12T11:07:09.590Z,9.43
2022-10-12T11:09:44.074Z,9.02
2022-10-12T11:12:18.525Z,11.50
2022-10-12T11:14:52.138Z,13.80
2022-10-12T11:17:30.593Z,10.55
2022-10-12T11:20:17.336Z,12.57
2022-10-12T11:22:51.650Z,13.48
2022-10-12T11:25:27.529Z,9.68
2022-10-12T11:27:59.155Z,11.20
2022-10-12T11:30:40.777Z,12.20
2022-10-12T11:33:26.110Z,12.15
2022-10-12T11:36:04.696Z,10.27
2022-10-12T11:38:46.013Z,10.82
2022-10-12T11:41:34.975Z,12.60
2022-10-12T11:44:07.936Z,11.35
2022-10-12T11:46:47.231Z,12.05
2022-10-12T11:49:29.659Z,11.13
2022-10-12T11:52:02.217Z,13.73
2022-10-12T11:54:37.043Z,12.32
2022-10-12T11:57:13.427Z,10.88
2022-10-12T11:59:46.640Z,12.30
2022-10-12T12:02:20.739Z,15.07
2022-10-12T12:04:53.554Z,14.30
2022-10-12T12:07:54.774Z,11.02
2022-10-12T12:11:03.072Z,12.60
2022-10-12T12:13:35.975Z,12.80
2022-10-12T12:16:35.444Z,13.88
2022-10-12T12:19:42.915Z,14.05
2022-10-12T12:22:26.525Z,12.50
2022-10-12T12:27:49.637Z,13.00
2022-10-12T12:30:37.742Z,11.15
2022-10-12T12:33:25.730Z,13.25
2022-10-12T12:36:00.175Z,12.13
2022-10-12T12:38:38.305Z,14.45
2022-10-12T12:41:10.813Z,11.65
2022-10-12T12:44:07.159Z,13.43
2022-10-12T12:47:44.623Z,15.77
2022-10-12T12:50:05.809Z,12.40
2022-10-12T12:52:36.601Z,10.90
2022-10-12T12:55:38.181Z,10.55
2022-10-12T12:58:41.739Z,14.80
2022-10-12T13:01:33.934Z,12.25
2022-10-12T13:04:32.792Z,13.48
2022-10-12T13:07:44.586Z,12.10
2022-10-12T13:10:26.681Z,12.82
2022-10-12T13:13:23.332Z,13.65
2022-10-12T13:16:24.974Z,13.80
2022-10-12T13:19:06.686Z,12.45
2022-10-12T13:21:45.402Z,10.73
2022-10-12T13:24:39.243Z,11.02
2022-10-12T13:27:22.393Z,12.43
2022-10-12T13:29:59.450Z,12.45
2022-10-12T13:32:39.330Z,8.05
2022-10-12T13:35:15.275Z,8.75
2022-10-12T13:37:49.443Z,10.85
2022-10-12T13:40:40.719Z,12.43
2022-10-12T13:43:45.437Z,10.90
2022-10-12T13:46:43.412Z,10.02
2022-10-12T13:49:27.416Z,15.80
2022-10-12T13:52:01.957Z,11.10
2022-10-12T13:54:41.873Z,11.48
2022-10-12T13:57:22.237Z,12.10
2022-10-12T14:00:04.479Z,12.18
2022-10-12T14:02:40.494Z,12.30
2022-10-12T14:05:24.791Z,13.55
2022-10-12T14:08:10.974Z,13.43
2022-10-12T14:10:41.691Z,13.00
2022-10-12T14:13:17.522Z,10.48
2022-10-12T14:15:52.346Z,11.75
2022-10-12T14:18:41.325Z,9.23
2022-10-12T14:21:18.212Z,10.70
2022-10-12T14:23:52.590Z,12.35
2022-10-12T14:26:41.833Z,8.60
2022-10-12T14:29:32.113Z,10.73
2022-10-12T14:32:09.861Z,7.75
2022-10-12T14:34:47.999Z,9.35
2022-10-12T14:37:38.217Z,10.15
2022-10-12T14:40:33.790Z,9.60
2022-10-12T14:43:08.040Z,13.65
2022-10-12T14:45:37.532Z,13.65
2022-10-12T14:48:17.472Z,12.80
2022-10-12T14:50:51.678Z,13.85
2022-10-12T14:53:21.190Z,10.43
2022-10-12T14:55:53.779Z,11.75
2022-10-12T14:58:25.890Z,12.10
2022-10-12T15:01:06.829Z,8.77
2022-10-12T15:03:38.867Z,9.77
2022-10-12T15:06:16.008Z,12.65
2022-10-12T15:08:45.966Z,15.15
2022-10-12T15:11:16.322Z,10.63
2022-10-12T15:13:45.009Z,12.70
2022-10-12T15:16:23.588Z,14.00
2022-10-12T15:18:58.678Z,15.32
2022-10-12T15:21:35.164Z,12.18
2022-10-12T15:24:04.139Z,12.55
2022-10-12T15:26:32.600Z,10.80
2022-10-12T15:29:02.752Z,10.70
2022-10-12T15:31:31.267Z,10.30
2022-10-12T15:34:17.144Z,13.82
2022-10-12T15:36:55.572Z,9.73
2022-10-12T15:39:24.870Z,12.35
2022-10-12T15:41:59.713Z,12.38
2022-10-12T15:44:30.328Z,12.60
2022-10-12T15:47:14.538Z,14.50
2022-10-12T15:49:57.174Z,10.68
2022-10-12T15:52:29.454Z,11.80
2022-10-12T15:55:01.920Z,13.50
2022-10-12T15:57:35.380Z,10.40
2022-10-12T16:00:08.348Z,11.52
2022-10-12T16:05:12.849Z,11.70
2022-10-12T16:07:48.103Z,13.10
2022-10-12T16:10:18.513Z,11.73
2022-10-12T16:12:51.599Z,9.82
2022-10-12T16:17:50.201Z,12.57
2022-10-12T16:20:19.935Z,12.52
2022-10-12T16:22:50.471Z,12.45
2022-10-12T16:25:22.234Z,12.20
2022-10-12T16:27:51.366Z,12.25
2022-10-12T16:30:20.201Z,13.43
2022-10-12T16:32:49.392Z,16.67
2022-10-12T16:35:17.924Z,13.13
2022-10-12T16:37:52.476Z,13.32
2022-10-12T16:40:21.564Z,15.05
2022-10-12T16:42:53.779Z,19.17
2022-10-12T16:45:22.709Z,19.07
2022-10-12T16:47:51.328Z,14.88
2022-10-12T16:50:20.382Z,21.10
2022-10-12T16:52:50.339Z,22.77
2022-10-12T16:55:25.166Z,28.23
2022-10-12T16:57:53.423Z,21.33
2022-10-12T17:00:22.020Z,18.02
2022-10-12T17:02:54.060Z,17.50
2022-10-12T17:05:25.631Z,16.00
2022-10-12T17:07:59.823Z,16.42
2022-10-12T17:10:28.780Z,19.67
2022-10-12T17:12:57.227Z,18.52
2022-10-12T17:15:31.242Z,18.70
2022-10-12T17:18:02.150Z,20.95
2022-10-12T17:20:35.352Z,19.02
2022-10-12T17:25:39.403Z,23.20
2022-10-12T17:28:09.705Z,22.15
2022-10-12T17:30:40.106Z,20.02
2022-10-12T17:33:14.037Z,23.65
2022-10-12T17:35:50.594Z,29.33
2022-10-12T17:38:21.011Z,18.95
2022-10-12T17:40:51.364Z,16.88
2022-10-12T17:43:20.220Z,16.02
2022-10-12T17:45:49.258Z,13.63
2022-10-12T17:48:19.286Z,16.27
2022-10-12T17:50:47.909Z,20.10
2022-10-12T17:53:16.606Z,19.30
2022-10-12T17:55:49.186Z,20.42
2022-10-12T17:58:17.837Z,15.70
2022-10-12T18:00:47.622Z,15.77
2022-10-12T18:03:21.120Z,18.08
2022-10-12T18:05:53.994Z,19.58
2022-10-12T18:08:25.035Z,15.50
2022-10-12T18:10:55.024Z,20.33
2022-10-12T18:13:29.193Z,21.15
2022-10-12T18:15:58.104Z,23.88
2022-10-12T18:18:30.092Z,24.45
2022-10-12T18:20:58.487Z,17.55
2022-10-12T18:23:27.926Z,19.13
2022-10-12T18:25:59.544Z,15.68
2022-10-12T18:28:28.159Z,24.95
2022-10-12T18:30:56.786Z,22.30
2022-10-12T18:33:39.522Z,16.58
2022-10-12T18:36:35.843Z,17.92
2022-10-12T18:39:09.877Z,19.73
2022-10-12T18:42:04.003Z,16.58
2022-10-12T18:44:56.435Z,19.33
2022-10-12T18:47:36.235Z,26.95
2022-10-12T18:50:32.695Z,27.50
2022-10-12T18:53:09.670Z,25.60
2022-10-12T18:55:50.934Z,23.65
2022-10-12T18:58:22.690Z,21.98
2022-10-12T19:00:52.595Z,24.02
2022-10-12T19:03:24.909Z,23.88
2022-10-12T19:06:05.032Z,21.93
2022-10-12T19:08:33.545Z,23.13
2022-10-12T19:11:05.018Z,24.42
2022-10-12T19:13:36.289Z,24.20
2022-10-12T19:16:07.295Z,20.45
2022-10-12T19:18:40.222Z,19.67
2022-10-12T19:21:13.345Z,23.38
2022-10-12T19:26:16.162Z,22.13
2022-10-12T19:29:04.679Z,23.38
2022-10-12T19:31:42.303Z,20.67
2022-10-12T19:34:13.626Z,20.77
2022-10-12T19:36:42.763Z,19.90
2022-10-12T19:39:14.550Z,21.42
2022-10-12T19:41:43.173Z,20.50
2022-10-12T19:44:19.397Z,18.88
2022-10-12T19:46:54.911Z,16.42
2022-10-12T19:49:24.698Z,17.20
2022-10-12T19:51:53.495Z,20.17
2022-10-12T19:54:25.582Z,20.88
2022-10-12T19:56:53.786Z,17.88
2022-10-12T19:59:36.022Z,22.27
2022-10-12T20:02:17.180Z,27.50
2022-10-12T20:04:45.844Z,21.80
2022-10-12T20:07:14.937Z,22.25
2022-10-12T20:09:46.333Z,23.52
2022-10-12T20:12:15.051Z,19.90
2022-10-12T20:14:54.083Z,19.73
2022-10-12T20:17:23.220Z,22.02
2022-10-12T20:19:57.739Z,23.30
2022-10-12T20:22:26.709Z,20.50
2022-10-12T20:24:55.794Z,22.60
2022-10-12T20:27:24.342Z,28.60
2022-10-12T20:29:57.001Z,25.45
2022-10-12T20:32:26.948Z,24.95
2022-10-12T20:35:00.996Z,24.48
2022-10-12T20:37:29.279Z,25.40
2022-10-12T20:39:59.038Z,30.77
2022-10-12T20:42:28.018Z,22.35
2022-10-12T20:44:59.338Z,24.17
2022-10-12T20:47:28.830Z,22.83
2022-10-12T20:49:59.668Z,25.77
2022-10-12T20:52:30.144Z,21.95
2022-10-12T20:55:00.435Z,22.02
2022-10-12T20:57:30.571Z,30.58
2022-10-12T21:00:03.275Z,27.60
2022-10-12T21:02:41.967Z,23.42
2022-10-12T21:05:11.866Z,21.52
2022-10-12T21:07:40.612Z,21.25
2022-10-12T21:10:10.754Z,20.20
2022-10-12T21:12:47.036Z,21.77
2022-10-12T21:15:19.607Z,23.52
2022-10-12T21:17:53.869Z,22.08
2022-10-12T21:20:22.516Z,22.73
2022-10-12T21:22:51.653Z,20.95
2022-10-12T21:25:19.904Z,22.55
2022-10-12T21:27:48.716Z,22.08
2022-10-12T21:30:20.346Z,21.83
2022-10-12T21:32:53.428Z,22.92
2022-10-12T21:35:22.168Z,20.90
2022-10-12T21:37:53.155Z,30.70
2022-10-12T21:40:23.522Z,24.67
2022-10-12T21:42:52.279Z,28.48
2022-10-12T21:45:22.284Z,22.52
2022-10-12T21:47:50.716Z,21.55
2022-10-12T21:50:24.294Z,23.10
2022-10-12T21:52:57.889Z,25.73
2022-10-12T21:55:28.803Z,23.17
2022-10-12T21:57:59.904Z,24.80
2022-10-12T22:00:33.210Z,25.58
2022-10-12T22:03:04.711Z,21.95
2022-10-12T22:05:40.784Z,26.98
2022-10-12T22:08:12.175Z,30.27
2022-10-12T22:10:41.372Z,25.60
2022-10-12T22:13:10.584Z,26.15
2022-10-12T22:15:41.188Z,20.05
2022-10-12T22:18:12.376Z,18.13
2022-10-12T22:20:42.084Z,22.50
2022-10-12T22:23:12.752Z,22.83
2022-10-12T22:25:43.214Z,21.40
2022-10-12T22:28:14.604Z,27.88
2022-10-12T22:30:51.971Z,20.92
2022-10-12T22:33:20.295Z,18.77
2022-10-12T22:35:54.598Z,18.20
2022-10-12T22:38:24.727Z,19.52
2022-10-12T22:41:02.215Z,21.05
2022-10-12T22:43:32.567Z,18.73
2022-10-12T22:46:04.041Z,21.70
2022-10-12T22:48:36.222Z,22.70
2022-10-12T22:51:08.143Z,25.60
2022-10-12T22:53:37.896Z,21.08
2022-10-12T22:56:14.225Z,24.65
2022-10-12T22:58:49.153Z,20.95
2022-10-12T23:01:19.520Z,22.70
2022-10-12T23:03:48.666Z,23.42
2022-10-12T23:06:18.785Z,20.50
2022-10-12T23:08:48.701Z,29.77
2022-10-12T23:11:23.158Z,24.88
2022-10-12T23:13:56.238Z,24.75
2022-10-12T23:19:00.459Z,25.73
2022-10-12T23:21:31.318Z,24.70
2022-10-12T23:24:01.112Z,19.45
2022-10-12T23:26:30.806Z,27.10
2022-10-12T23:29:04.274Z,23.63
2022-10-12T23:31:35.945Z,25.45
2022-10-12T23:34:09.583Z,23.88
2022-10-12T23:36:47.057Z,24.00
2022-10-12T23:39:16.023Z,25.67
2022-10-12T23:41:47.083Z,22.30
2022-10-12T23:44:17.857Z,20.33
2022-10-12T23:46:48.322Z,19.58
2022-10-12T23:49:23.183Z,18.98
2022-10-12T23:51:52.905Z,20.38
2022-10-12T23:54:26.967Z,22.58
2022-10-12T23:56:57.421Z,23.02
2022-10-12T23:59:29.139Z,19.98
